createdAt,value
2017-12-30T00:00:18.762Z,20.00
2017-12-30T00:01:23.710Z,20.00
2017-12-30T00:02:28.487Z,20.00
2017-12-30T00:03:33.290Z,20.00
2017-12-30T00:04:38.378Z,19.90
2017-12-30T00:05:43.416Z,20.00
2017-12-30T00:06:48.395Z,19.90
2017-12-30T00:07:53.154Z,20.00
2017-12-30T00:08:58.283Z,19.90
2017-12-30T00:10:03.684Z,19.90
2017-12-30T00:11:09.156Z,19.90
2017-12-30T00:12:14.726Z,20.00
2017-12-30T00:13:21.526Z,19.90
2017-12-30T00:14:28.807Z,19.90
2017-12-30T00:15:34.307Z,19.90
2017-12-30T00:16:39.287Z,19.90
2017-12-30T00:17:44.216Z,19.90
2017-12-30T00:18:49.001Z,19.90
2017-12-30T00:19:54.067Z,19.90
2017-12-30T00:20:58.857Z,19.90
2017-12-30T00:22:03.648Z,19.90
2017-12-30T00:23:08.620Z,19.90
2017-12-30T00:24:13.585Z,19.90
2017-12-30T00:25:18.427Z,19.90
2017-12-30T00:26:23.187Z,19.90
2017-12-30T00:27:27.916Z,19.90
2017-12-30T00:28:32.897Z,19.90
2017-12-30T00:29:37.601Z,19.90
2017-12-30T00:30:43.576Z,19.90
2017-12-30T00:31:48.626Z,19.90
2017-12-30T00:32:53.601Z,19.90
2017-12-30T00:33:58.825Z,19.90
2017-12-30T00:35:04.174Z,19.90
2017-12-30T00:36:09.357Z,19.90
2017-12-30T00:37:14.123Z,19.90
2017-12-30T00:38:19.232Z,19.90
2017-12-30T00:39:24.203Z,19.90
2017-12-30T00:40:29.272Z,19.90
2017-12-30T00:41:34.228Z,19.90
2017-12-30T00:42:38.951Z,19.90
2017-12-30T00:43:43.871Z,19.90
2017-12-30T00:44:49.264Z,19.90
2017-12-30T00:45:54.030Z,19.90
2017-12-30T00:46:58.997Z,19.90
2017-12-30T00:48:03.796Z,19.90
2017-12-30T00:49:09.288Z,19.90
2017-12-30T00:50:14.206Z,19.90
2017-12-30T00:51:19.428Z,19.90
2017-12-30T00:52:24.497Z,19.90
2017-12-30T00:53:34.182Z,19.90
2017-12-30T00:55:33.589Z,19.90
2017-12-30T00:56:39.536Z,19.90
2017-12-30T00:57:51.193Z,19.90
2017-12-30T00:58:57.505Z,19.90
2017-12-30T01:00:06.420Z,19.90
2017-12-30T01:01:12.763Z,19.90
2017-12-30T01:02:24.308Z,19.90
2017-12-30T01:03:35.718Z,19.90
2017-12-30T01:04:46.130Z,19.90
2017-12-30T01:05:56.588Z,19.90
2017-12-30T01:07:07.001Z,19.90
2017-12-30T01:08:11.752Z,19.90
2017-12-30T01:09:16.605Z,19.90
2017-12-30T01:10:21.478Z,19.90
2017-12-30T01:11:26.326Z,19.90
2017-12-30T01:12:31.409Z,19.90
2017-12-30T01:13:36.692Z,19.80
2017-12-30T01:14:41.934Z,19.90
2017-12-30T01:15:47.087Z,19.90
2017-12-30T01:16:51.949Z,19.90
2017-12-30T01:17:57.078Z,19.90
2017-12-30T01:19:01.983Z,19.90
2017-12-30T01:20:06.698Z,19.90
2017-12-30T01:21:11.346Z,19.90
2017-12-30T01:22:16.432Z,19.90
2017-12-30T01:23:21.478Z,19.90
2017-12-30T01:24:26.464Z,19.90
2017-12-30T01:25:31.390Z,19.90
2017-12-30T01:26:36.186Z,19.90
2017-12-30T01:27:40.929Z,19.90
2017-12-30T01:28:45.666Z,19.90
2017-12-30T01:29:50.536Z,19.90
2017-12-30T01:30:55.478Z,19.90
2017-12-30T01:32:00.634Z,19.90
2017-12-30T01:33:06.424Z,19.90
2017-12-30T01:34:11.389Z,19.90
2017-12-30T01:35:16.120Z,19.90
2017-12-30T01:36:20.851Z,19.90
2017-12-30T01:37:25.751Z,19.90
2017-12-30T01:38:30.661Z,19.90
2017-12-30T01:39:35.606Z,19.90
2017-12-30T01:40:40.521Z,19.90
2017-12-30T01:41:45.434Z,19.90
2017-12-30T01:42:50.467Z,19.90
2017-12-30T01:43:55.505Z,19.90
2017-12-30T01:45:00.464Z,19.90
2017-12-30T01:46:05.396Z,19.90
2017-12-30T01:47:10.185Z,19.90
2017-12-30T01:48:15.311Z,19.90
2017-12-30T01:49:20.106Z,19.90
2017-12-30T01:50:25.845Z,19.90
2017-12-30T01:51:30.793Z,19.90
2017-12-30T01:52:35.589Z,19.90
2017-12-30T01:53:40.317Z,19.90
2017-12-30T01:54:45.078Z,19.90
2017-12-30T01:55:49.783Z,19.90
2017-12-30T01:56:54.573Z,19.90
2017-12-30T01:57:59.389Z,19.90
2017-12-30T01:59:04.381Z,19.90
2017-12-30T02:00:09.384Z,19.90
2017-12-30T02:01:14.147Z,19.90
2017-12-30T02:02:18.872Z,19.90
2017-12-30T02:03:24.038Z,19.90
2017-12-30T02:04:28.787Z,19.90
2017-12-30T02:05:33.564Z,19.80
2017-12-30T02:06:38.365Z,19.90
2017-12-30T02:07:43.103Z,19.90
2017-12-30T02:08:47.896Z,19.90
2017-12-30T02:09:53.108Z,19.90
2017-12-30T02:10:58.380Z,19.90
2017-12-30T02:12:03.331Z,19.90
2017-12-30T02:13:08.097Z,19.90
2017-12-30T02:14:13.863Z,19.90
2017-12-30T02:15:18.986Z,19.90
2017-12-30T02:16:23.857Z,19.90
2017-12-30T02:17:28.939Z,19.90
2017-12-30T02:18:33.685Z,19.90
2017-12-30T02:19:38.431Z,19.90
2017-12-30T02:20:43.271Z,19.80
2017-12-30T02:21:48.026Z,19.90
2017-12-30T02:22:52.967Z,19.90
2017-12-30T02:23:58.171Z,19.80
2017-12-30T02:25:02.985Z,19.80
2017-12-30T02:26:07.797Z,19.90
2017-12-30T02:27:12.875Z,19.80
2017-12-30T02:28:17.619Z,19.80
2017-12-30T02:29:22.549Z,19.80
2017-12-30T02:30:27.455Z,19.90
2017-12-30T02:31:32.241Z,19.80
2017-12-30T02:32:37.189Z,19.90
2017-12-30T02:33:42.225Z,19.80
2017-12-30T02:34:47.339Z,19.80
2017-12-30T02:35:52.236Z,19.90
2017-12-30T02:36:57.344Z,19.90
2017-12-30T02:38:02.217Z,19.90
2017-12-30T02:39:07.038Z,19.90
2017-12-30T02:40:11.876Z,19.90
2017-12-30T02:41:16.870Z,19.90
2017-12-30T02:42:21.764Z,19.90
2017-12-30T02:43:26.737Z,19.80
2017-12-30T02:44:31.740Z,19.80
2017-12-30T02:45:37.517Z,19.80
2017-12-30T02:46:43.066Z,19.80
2017-12-30T02:47:47.986Z,19.90
2017-12-30T02:48:52.893Z,19.80
2017-12-30T02:49:57.709Z,19.80
2017-12-30T02:51:02.576Z,19.80
2017-12-30T02:52:07.504Z,19.80
2017-12-30T02:53:12.473Z,19.80
2017-12-30T02:54:17.244Z,19.80
2017-12-30T02:55:22.062Z,19.80
2017-12-30T02:56:26.798Z,19.80
2017-12-30T02:57:31.650Z,19.80
2017-12-30T02:58:36.520Z,19.80
2017-12-30T02:59:41.318Z,19.80
2017-12-30T03:00:46.210Z,19.80
2017-12-30T03:01:51.063Z,19.80
2017-12-30T03:02:55.908Z,19.80
2017-12-30T03:04:01.510Z,19.80
2017-12-30T03:05:06.625Z,19.80
2017-12-30T03:06:11.585Z,19.80
2017-12-30T03:07:16.562Z,19.80
2017-12-30T03:08:21.252Z,19.80
2017-12-30T03:09:26.138Z,19.80
2017-12-30T03:10:31.212Z,19.80
2017-12-30T03:11:35.934Z,19.80
2017-12-30T03:12:40.931Z,19.80
2017-12-30T03:13:45.855Z,19.80
2017-12-30T03:14:51.247Z,19.80
2017-12-30T03:15:56.049Z,19.90
2017-12-30T03:17:01.089Z,19.80
2017-12-30T03:18:06.042Z,19.80
2017-12-30T03:19:10.788Z,19.80
2017-12-30T03:20:16.262Z,19.80
2017-12-30T03:21:21.074Z,19.80
2017-12-30T03:22:27.105Z,19.80
2017-12-30T03:23:32.030Z,19.80
2017-12-30T03:24:36.877Z,19.80
2017-12-30T03:25:41.740Z,19.80
2017-12-30T03:26:46.573Z,19.80
2017-12-30T03:27:51.527Z,19.80
2017-12-30T03:28:56.508Z,19.80
2017-12-30T03:30:01.549Z,19.80
2017-12-30T03:31:06.487Z,19.80
2017-12-30T03:32:11.465Z,19.80
2017-12-30T03:33:16.444Z,19.80
2017-12-30T03:34:21.398Z,19.80
2017-12-30T03:35:26.123Z,19.80
2017-12-30T03:36:31.255Z,19.80
2017-12-30T03:37:36.253Z,19.80
2017-12-30T03:38:41.407Z,19.80
2017-12-30T03:39:46.178Z,19.80
2017-12-30T03:40:50.895Z,19.80
2017-12-30T03:41:55.870Z,19.80
2017-12-30T03:43:00.630Z,19.80
2017-12-30T03:44:05.511Z,19.80
2017-12-30T03:45:10.604Z,19.80
2017-12-30T03:46:15.524Z,19.80
2017-12-30T03:47:20.415Z,19.80
2017-12-30T03:48:25.190Z,19.80
2017-12-30T03:49:29.894Z,19.80
2017-12-30T03:50:34.719Z,19.80
2017-12-30T03:51:39.570Z,19.80
2017-12-30T03:52:44.315Z,19.80
2017-12-30T03:53:49.184Z,19.80
2017-12-30T03:54:54.367Z,19.80
2017-12-30T03:55:59.318Z,19.80
2017-12-30T03:57:04.920Z,19.80
2017-12-30T03:58:09.916Z,19.80
2017-12-30T03:59:14.650Z,19.80
2017-12-30T04:00:19.399Z,19.80
2017-12-30T04:01:24.281Z,19.80
2017-12-30T04:02:29.070Z,19.80
2017-12-30T04:03:33.950Z,19.80
2017-12-30T04:04:38.809Z,19.80
2017-12-30T04:05:43.647Z,19.80
2017-12-30T04:06:48.401Z,19.80
2017-12-30T04:07:53.224Z,19.80
2017-12-30T04:08:57.999Z,19.80
2017-12-30T04:10:02.730Z,19.80
2017-12-30T04:11:07.566Z,19.80
2017-12-30T04:12:12.485Z,19.80
2017-12-30T04:13:17.455Z,19.80
2017-12-30T04:14:22.368Z,19.80
2017-12-30T04:15:27.108Z,19.80
2017-12-30T04:16:32.077Z,19.80
2017-12-30T04:17:37.032Z,19.80
2017-12-30T04:18:41.765Z,19.80
2017-12-30T04:19:46.625Z,19.80
2017-12-30T04:20:51.469Z,19.80
2017-12-30T04:21:56.337Z,19.80
2017-12-30T04:23:01.083Z,19.80
2017-12-30T04:24:05.765Z,19.80
2017-12-30T04:25:10.647Z,19.80
2017-12-30T04:26:15.811Z,19.80
2017-12-30T04:27:20.763Z,19.80
2017-12-30T04:28:25.483Z,19.80
2017-12-30T04:29:30.434Z,19.80
2017-12-30T04:30:35.316Z,19.80
2017-12-30T04:31:40.133Z,19.80
2017-12-30T04:32:44.866Z,19.80
2017-12-30T04:33:49.692Z,19.80
2017-12-30T04:34:54.694Z,19.80
2017-12-30T04:35:59.612Z,19.80
2017-12-30T04:37:04.743Z,19.80
2017-12-30T04:38:09.487Z,19.80
2017-12-30T04:39:14.422Z,19.80
2017-12-30T04:40:19.336Z,19.80
2017-12-30T04:41:24.063Z,19.80
2017-12-30T04:42:29.073Z,19.80
2017-12-30T04:43:34.169Z,19.80
2017-12-30T04:44:39.080Z,19.80
2017-12-30T04:45:43.858Z,19.80
2017-12-30T04:46:48.786Z,19.80
2017-12-30T04:47:53.494Z,19.80
2017-12-30T04:48:58.199Z,19.80
2017-12-30T04:50:03.271Z,19.80
2017-12-30T04:51:08.403Z,19.80
2017-12-30T04:52:13.499Z,19.80
2017-12-30T04:53:18.457Z,19.80
2017-12-30T04:54:23.352Z,19.80
2017-12-30T04:55:28.324Z,19.80
2017-12-30T04:56:33.309Z,19.80
2017-12-30T04:57:38.112Z,19.80
2017-12-30T04:58:42.876Z,19.80
2017-12-30T04:59:48.493Z,19.80
2017-12-30T05:00:53.239Z,19.80
2017-12-30T05:01:58.069Z,19.80
2017-12-30T05:03:02.834Z,19.80
2017-12-30T05:04:07.688Z,19.80
2017-12-30T05:05:13.646Z,19.80
2017-12-30T05:06:18.479Z,19.80
2017-12-30T05:07:23.440Z,19.80
2017-12-30T05:08:28.508Z,19.80
2017-12-30T05:09:33.382Z,19.80
2017-12-30T05:10:38.155Z,19.80
2017-12-30T05:11:43.052Z,19.80
2017-12-30T05:12:47.988Z,19.80
2017-12-30T05:13:52.755Z,19.80
2017-12-30T05:14:57.604Z,19.80
2017-12-30T05:16:02.633Z,19.80
2017-12-30T05:17:07.677Z,19.80
2017-12-30T05:18:12.432Z,19.80
2017-12-30T05:19:19.105Z,19.80
2017-12-30T05:20:25.085Z,19.80
2017-12-30T05:21:30.299Z,19.80
2017-12-30T05:22:35.317Z,19.80
2017-12-30T05:23:40.056Z,19.80
2017-12-30T05:24:45.623Z,19.80
2017-12-30T05:25:50.380Z,19.80
2017-12-30T05:26:55.186Z,19.80
2017-12-30T05:27:59.962Z,19.80
2017-12-30T05:29:04.750Z,19.80
2017-12-30T05:30:09.767Z,19.80
2017-12-30T05:31:14.576Z,19.80
2017-12-30T05:32:19.595Z,19.80
2017-12-30T05:33:24.572Z,19.80
2017-12-30T05:34:29.380Z,19.80
2017-12-30T05:35:34.288Z,19.80
2017-12-30T05:36:39.179Z,19.80
2017-12-30T05:37:44.350Z,19.80
2017-12-30T05:38:49.239Z,19.80
2017-12-30T05:39:55.044Z,19.80
2017-12-30T05:40:59.755Z,19.80
2017-12-30T05:42:04.874Z,19.80
2017-12-30T05:43:09.693Z,19.80
2017-12-30T05:44:14.463Z,19.80
2017-12-30T05:45:19.196Z,19.80
2017-12-30T05:46:24.167Z,19.80
2017-12-30T05:47:29.055Z,19.80
2017-12-30T05:48:33.980Z,19.80
2017-12-30T05:49:38.942Z,19.80
2017-12-30T05:50:43.880Z,19.80
2017-12-30T05:51:48.793Z,19.80
2017-12-30T05:52:53.683Z,19.80
2017-12-30T05:53:58.443Z,19.70
2017-12-30T05:55:03.419Z,19.80
2017-12-30T05:56:08.320Z,19.80
2017-12-30T05:57:13.218Z,19.80
2017-12-30T05:58:18.502Z,19.80
2017-12-30T05:59:23.433Z,19.80
2017-12-30T06:00:28.414Z,19.80
2017-12-30T06:01:33.379Z,19.80
2017-12-30T06:02:38.293Z,19.80
2017-12-30T06:03:43.040Z,19.80
2017-12-30T06:04:47.837Z,19.80
2017-12-30T06:05:52.738Z,19.80
2017-12-30T06:06:57.663Z,19.80
2017-12-30T06:08:02.587Z,19.80
2017-12-30T06:09:07.447Z,19.80
2017-12-30T06:10:12.343Z,19.80
2017-12-30T06:11:17.500Z,19.80
2017-12-30T06:12:22.395Z,19.80
2017-12-30T06:13:27.177Z,19.80
2017-12-30T06:14:31.866Z,19.80
2017-12-30T06:15:36.868Z,19.80
2017-12-30T06:16:42.195Z,19.80
2017-12-30T06:17:47.029Z,19.80
2017-12-30T06:18:51.746Z,19.80
2017-12-30T06:19:56.505Z,19.80
2017-12-30T06:21:02.735Z,19.70
2017-12-30T06:22:07.731Z,19.80
2017-12-30T06:23:12.742Z,19.80
2017-12-30T06:24:17.561Z,19.80
2017-12-30T06:25:22.525Z,19.80
2017-12-30T06:26:27.209Z,19.80
2017-12-30T06:27:32.018Z,19.80
2017-12-30T06:28:36.734Z,19.80
2017-12-30T06:29:41.702Z,19.80
2017-12-30T06:30:46.416Z,19.80
2017-12-30T06:31:51.355Z,19.80
2017-12-30T06:32:56.330Z,19.80
2017-12-30T06:34:01.266Z,19.80
2017-12-30T06:35:06.389Z,19.80
2017-12-30T06:36:11.099Z,19.80
2017-12-30T06:37:15.928Z,19.80
2017-12-30T06:38:20.637Z,19.80
2017-12-30T06:39:25.502Z,19.80
2017-12-30T06:40:30.416Z,19.80
2017-12-30T06:41:35.266Z,19.80
2017-12-30T06:42:40.203Z,19.80
2017-12-30T06:43:45.044Z,19.80
2017-12-30T06:44:49.964Z,19.80
2017-12-30T06:45:54.739Z,19.80
2017-12-30T06:46:59.627Z,19.80
2017-12-30T06:48:04.358Z,19.80
2017-12-30T06:49:09.137Z,19.80
2017-12-30T06:50:14.336Z,19.80
2017-12-30T06:51:20.417Z,19.80
2017-12-30T06:52:25.399Z,19.80
2017-12-30T06:53:30.962Z,19.80
2017-12-30T06:54:35.908Z,19.80
2017-12-30T06:55:40.709Z,19.80
2017-12-30T06:56:45.468Z,19.80
2017-12-30T06:57:50.381Z,19.80
2017-12-30T06:58:55.147Z,19.70
2017-12-30T07:00:00.203Z,19.80
2017-12-30T07:01:05.136Z,19.80
2017-12-30T07:02:10.113Z,19.80
2017-12-30T07:03:15.023Z,19.80
2017-12-30T07:04:19.813Z,19.80
2017-12-30T07:05:24.680Z,19.80
2017-12-30T07:06:29.647Z,19.70
2017-12-30T07:07:34.479Z,19.80
2017-12-30T07:08:39.163Z,19.80
2017-12-30T07:09:44.029Z,19.70
2017-12-30T07:10:48.845Z,19.80
2017-12-30T07:11:53.988Z,19.70
2017-12-30T07:12:58.763Z,19.70
2017-12-30T07:14:03.662Z,19.80
2017-12-30T07:15:08.361Z,19.70
2017-12-30T07:16:13.109Z,19.70
2017-12-30T07:17:18.145Z,19.70
2017-12-30T07:18:22.951Z,19.80
2017-12-30T07:19:27.923Z,19.80
2017-12-30T07:20:32.803Z,19.70
2017-12-30T07:21:37.546Z,19.70
2017-12-30T07:22:42.458Z,19.70
2017-12-30T07:23:47.447Z,19.70
2017-12-30T07:24:52.260Z,19.70
2017-12-30T07:25:57.002Z,19.70
2017-12-30T07:27:02.301Z,19.70
2017-12-30T07:28:07.208Z,19.70
2017-12-30T07:29:12.289Z,19.70
2017-12-30T07:30:17.015Z,19.70
2017-12-30T07:31:22.072Z,19.70
2017-12-30T07:32:26.811Z,19.80
2017-12-30T07:33:31.725Z,19.80
2017-12-30T07:34:36.871Z,19.80
2017-12-30T07:35:41.597Z,19.80
2017-12-30T07:36:46.643Z,19.80
2017-12-30T07:37:51.370Z,19.80
2017-12-30T07:38:56.455Z,19.80
2017-12-30T07:40:01.286Z,19.70
2017-12-30T07:41:06.234Z,19.60
2017-12-30T07:42:11.180Z,19.50
2017-12-30T07:43:15.977Z,19.40
2017-12-30T07:44:20.918Z,19.30
2017-12-30T07:45:25.991Z,19.20
2017-12-30T07:46:30.896Z,19.10
2017-12-30T07:47:35.816Z,19.10
2017-12-30T07:48:40.547Z,19.10
2017-12-30T07:49:45.487Z,19.00
2017-12-30T07:50:50.426Z,18.90
2017-12-30T07:51:55.222Z,18.90
2017-12-30T07:53:00.171Z,18.80
2017-12-30T07:54:05.066Z,18.80
2017-12-30T07:55:10.338Z,18.70
2017-12-30T07:56:15.101Z,18.70
2017-12-30T07:57:20.363Z,18.70
2017-12-30T07:58:25.103Z,18.60
2017-12-30T07:59:30.411Z,18.60
2017-12-30T08:00:35.140Z,18.60
2017-12-30T08:01:40.205Z,18.60
2017-12-30T08:02:45.053Z,18.60
2017-12-30T08:03:50.236Z,18.70
2017-12-30T08:04:55.125Z,18.70
2017-12-30T08:06:00.392Z,18.80
2017-12-30T08:07:05.165Z,18.80
2017-12-30T08:08:10.411Z,18.80
2017-12-30T08:09:15.467Z,18.80
2017-12-30T08:10:20.447Z,18.90
2017-12-30T08:11:25.129Z,19.00
2017-12-30T08:12:30.212Z,19.00
2017-12-30T08:13:35.149Z,19.00
2017-12-30T08:14:40.245Z,19.00
2017-12-30T08:15:44.993Z,19.10
2017-12-30T08:16:50.208Z,19.10
2017-12-30T08:17:55.155Z,19.10
2017-12-30T08:19:00.429Z,19.10
2017-12-30T08:20:05.565Z,19.20
2017-12-30T08:21:10.563Z,19.20
2017-12-30T08:22:15.551Z,19.20
2017-12-30T08:23:21.826Z,19.20
2017-12-30T08:24:28.815Z,19.30
2017-12-30T08:25:34.050Z,19.30
2017-12-30T08:26:39.321Z,19.30
2017-12-30T08:27:44.243Z,19.40
2017-12-30T08:28:49.554Z,19.40
2017-12-30T08:29:54.324Z,19.40
2017-12-30T08:30:59.657Z,19.40
2017-12-30T08:32:04.439Z,19.50
2017-12-30T08:33:09.702Z,19.50
2017-12-30T08:34:14.436Z,19.50
2017-12-30T08:35:19.749Z,19.50
2017-12-30T08:36:24.765Z,19.50
2017-12-30T08:37:29.919Z,19.60
2017-12-30T08:38:34.795Z,19.60
2017-12-30T08:39:39.616Z,19.60
2017-12-30T08:40:44.527Z,19.60
2017-12-30T08:41:49.486Z,19.60
2017-12-30T08:42:54.881Z,19.70
2017-12-30T08:43:59.856Z,19.70
2017-12-30T08:45:04.593Z,19.70
2017-12-30T08:46:09.599Z,19.70
2017-12-30T08:47:14.556Z,19.70
2017-12-30T08:48:19.633Z,19.70
2017-12-30T08:49:24.591Z,19.70
2017-12-30T08:50:29.709Z,19.70
2017-12-30T08:51:34.681Z,19.70
2017-12-30T08:52:39.764Z,19.70
2017-12-30T08:53:44.751Z,19.70
2017-12-30T08:54:49.782Z,19.70
2017-12-30T08:55:54.760Z,19.70
2017-12-30T08:56:59.575Z,19.70
2017-12-30T08:58:04.693Z,19.70
2017-12-30T08:59:10.094Z,19.70
2017-12-30T09:00:15.131Z,19.70
2017-12-30T09:01:20.607Z,19.70
2017-12-30T09:02:28.205Z,19.70
2017-12-30T09:03:34.538Z,19.70
2017-12-30T09:04:39.679Z,19.80
2017-12-30T09:05:44.626Z,19.80
2017-12-30T09:06:49.576Z,19.80
2017-12-30T09:07:54.312Z,19.80
2017-12-30T09:08:59.552Z,19.80
2017-12-30T09:10:04.285Z,19.80
2017-12-30T09:11:09.681Z,19.80
2017-12-30T09:12:14.739Z,19.80
2017-12-30T09:13:19.759Z,19.80
2017-12-30T09:14:24.507Z,19.80
2017-12-30T09:15:29.667Z,19.90
2017-12-30T09:16:34.812Z,19.90
2017-12-30T09:17:40.029Z,19.90
2017-12-30T09:18:44.927Z,19.90
2017-12-30T09:19:49.916Z,20.00
2017-12-30T09:20:54.647Z,20.00
2017-12-30T09:21:59.749Z,20.00
2017-12-30T09:23:04.548Z,20.00
2017-12-30T09:24:09.600Z,20.00
2017-12-30T09:25:14.602Z,20.00
2017-12-30T09:26:20.018Z,20.00
2017-12-30T09:27:25.075Z,20.00
2017-12-30T09:28:30.558Z,20.00
2017-12-30T09:29:35.578Z,20.10
2017-12-30T09:30:40.549Z,20.00
2017-12-30T09:31:45.482Z,20.00
2017-12-30T09:32:50.858Z,20.10
2017-12-30T09:33:55.786Z,20.10
2017-12-30T09:35:00.851Z,20.00
2017-12-30T09:36:05.888Z,20.10
2017-12-30T09:37:10.928Z,20.10
2017-12-30T09:38:15.729Z,20.10
2017-12-30T09:39:20.704Z,20.10
2017-12-30T09:40:25.480Z,20.10
2017-12-30T09:41:30.704Z,20.10
2017-12-30T09:42:35.724Z,20.10
2017-12-30T09:43:42.592Z,20.10
2017-12-30T09:44:48.237Z,20.10
2017-12-30T09:45:52.962Z,20.00
2017-12-30T09:46:58.317Z,20.00
2017-12-30T09:48:03.243Z,20.10
2017-12-30T09:49:09.196Z,20.10
2017-12-30T09:50:14.426Z,20.10
2017-12-30T09:51:19.263Z,20.10
2017-12-30T09:52:24.638Z,20.10
2017-12-30T09:53:29.529Z,20.10
2017-12-30T09:54:34.717Z,20.10
2017-12-30T09:55:39.504Z,20.10
2017-12-30T09:56:44.809Z,20.10
2017-12-30T09:57:49.554Z,20.10
2017-12-30T09:58:54.695Z,20.10
2017-12-30T10:00:01.480Z,20.20
2017-12-30T10:01:06.433Z,20.10
2017-12-30T10:02:11.336Z,20.20
2017-12-30T10:03:16.361Z,20.20
2017-12-30T10:04:21.093Z,20.20
2017-12-30T10:05:27.239Z,20.20
2017-12-30T10:06:32.224Z,20.20
2017-12-30T10:07:37.105Z,20.20
2017-12-30T10:08:42.203Z,20.20
2017-12-30T10:09:47.810Z,20.20
2017-12-30T10:10:52.770Z,20.20
2017-12-30T10:11:57.634Z,20.20
2017-12-30T10:13:02.594Z,20.20
2017-12-30T10:14:07.308Z,20.20
2017-12-30T10:15:12.304Z,20.20
2017-12-30T10:16:17.200Z,20.20
2017-12-30T10:17:23.270Z,20.20
2017-12-30T10:18:28.864Z,20.10
2017-12-30T10:19:34.813Z,20.10
2017-12-30T10:20:40.055Z,20.10
2017-12-30T10:21:44.837Z,20.20
2017-12-30T10:22:50.316Z,20.30
2017-12-30T10:23:55.080Z,20.30
2017-12-30T10:25:00.549Z,20.30
2017-12-30T10:26:05.495Z,20.30
2017-12-30T10:27:10.694Z,20.30
2017-12-30T10:28:15.676Z,20.30
2017-12-30T10:29:21.628Z,20.30
2017-12-30T10:30:26.577Z,20.30
2017-12-30T10:31:31.436Z,20.20
2017-12-30T10:32:36.188Z,20.20
2017-12-30T10:33:41.287Z,20.10
2017-12-30T10:34:46.005Z,20.10
2017-12-30T10:35:51.131Z,20.10
2017-12-30T10:36:55.951Z,20.10
2017-12-30T10:38:01.352Z,20.10
2017-12-30T10:39:06.145Z,20.10
2017-12-30T10:40:11.558Z,20.10
2017-12-30T10:41:16.454Z,20.10
2017-12-30T10:42:21.498Z,20.10
2017-12-30T10:43:26.465Z,20.10
2017-12-30T10:44:31.626Z,20.10
2017-12-30T10:45:36.395Z,20.10
2017-12-30T10:46:41.572Z,20.10
2017-12-30T10:47:46.442Z,20.10
2017-12-30T10:48:51.362Z,20.10
2017-12-30T10:49:56.289Z,20.10
2017-12-30T10:51:01.519Z,20.10
2017-12-30T10:52:06.295Z,20.10
2017-12-30T10:53:11.315Z,20.10
2017-12-30T10:54:16.117Z,20.10
2017-12-30T10:55:21.637Z,20.10
2017-12-30T10:56:26.445Z,20.10
2017-12-30T10:57:31.358Z,20.10
2017-12-30T10:58:36.549Z,20.10
2017-12-30T10:59:41.565Z,20.10
2017-12-30T11:00:46.311Z,20.10
2017-12-30T11:01:51.463Z,20.10
2017-12-30T11:02:56.395Z,20.10
2017-12-30T11:04:01.511Z,20.10
2017-12-30T11:05:06.229Z,20.10
2017-12-30T11:06:11.676Z,20.10
2017-12-30T11:07:16.471Z,20.10
2017-12-30T11:08:21.931Z,20.10
2017-12-30T11:09:26.762Z,20.10
2017-12-30T11:10:31.754Z,20.10
2017-12-30T11:11:36.904Z,20.10
2017-12-30T11:12:42.037Z,20.10
2017-12-30T11:13:46.986Z,20.10
2017-12-30T11:14:52.335Z,20.10
2017-12-30T11:15:57.910Z,20.10
2017-12-30T11:17:02.765Z,20.10
2017-12-30T11:18:07.484Z,20.20
2017-12-30T11:19:12.558Z,20.10
2017-12-30T11:20:17.485Z,20.10
2017-12-30T11:21:22.536Z,20.20
2017-12-30T11:22:27.332Z,20.20
2017-12-30T11:23:32.539Z,20.20
2017-12-30T11:24:37.500Z,20.20
2017-12-30T11:25:42.598Z,20.20
2017-12-30T11:26:47.414Z,20.20
2017-12-30T11:27:52.581Z,20.20
2017-12-30T11:28:57.510Z,20.20
2017-12-30T11:30:02.461Z,20.20
2017-12-30T11:31:07.288Z,20.20
2017-12-30T11:32:12.566Z,20.20
2017-12-30T11:33:17.599Z,20.20
2017-12-30T11:34:23.813Z,20.20
2017-12-30T11:35:29.232Z,20.20
2017-12-30T11:36:34.222Z,20.20
2017-12-30T11:37:39.174Z,20.20
2017-12-30T11:38:43.990Z,20.20
2017-12-30T11:39:49.060Z,20.20
2017-12-30T11:40:53.827Z,20.20
2017-12-30T11:41:58.562Z,20.20
2017-12-30T11:43:03.294Z,20.20
2017-12-30T11:44:08.087Z,20.20
2017-12-30T11:45:13.097Z,20.20
2017-12-30T11:46:17.890Z,20.20
2017-12-30T11:47:22.987Z,20.20
2017-12-30T11:48:27.940Z,20.20
2017-12-30T11:49:32.918Z,20.20
2017-12-30T11:50:37.793Z,20.20
2017-12-30T11:51:42.896Z,20.20
2017-12-30T11:52:48.722Z,20.20
2017-12-30T11:53:53.544Z,20.20
2017-12-30T11:54:58.567Z,20.20
2017-12-30T11:56:03.529Z,20.30
2017-12-30T11:57:08.476Z,20.30
2017-12-30T11:58:13.562Z,20.30
2017-12-30T11:59:18.600Z,20.20
2017-12-30T12:00:23.410Z,20.30
2017-12-30T12:01:28.879Z,20.30
2017-12-30T12:02:33.766Z,20.30
2017-12-30T12:03:38.582Z,20.30
2017-12-30T12:04:43.580Z,20.30
2017-12-30T12:05:48.363Z,20.30
2017-12-30T12:06:53.130Z,20.30
2017-12-30T12:07:57.978Z,20.30
2017-12-30T12:09:02.796Z,20.30
2017-12-30T12:10:07.895Z,20.30
2017-12-30T12:11:13.345Z,20.30
2017-12-30T12:12:18.263Z,20.30
2017-12-30T12:13:23.264Z,20.30
2017-12-30T12:14:28.347Z,20.30
2017-12-30T12:15:33.240Z,20.20
2017-12-30T12:16:38.070Z,20.20
2017-12-30T12:17:42.849Z,20.20
2017-12-30T12:18:47.875Z,20.20
2017-12-30T12:19:52.698Z,20.20
2017-12-30T12:20:58.402Z,20.10
2017-12-30T12:22:03.410Z,20.20
2017-12-30T12:23:08.352Z,20.10
2017-12-30T12:24:13.362Z,20.10
2017-12-30T12:25:18.326Z,20.10
2017-12-30T12:26:23.208Z,20.10
2017-12-30T12:27:28.012Z,20.10
2017-12-30T12:28:33.042Z,20.10
2017-12-30T12:29:38.271Z,20.10
2017-12-30T12:30:43.194Z,20.10
2017-12-30T12:31:47.999Z,20.10
2017-12-30T12:32:53.013Z,20.10
2017-12-30T12:33:57.934Z,20.10
2017-12-30T12:35:03.062Z,20.10
2017-12-30T12:36:07.855Z,20.10
2017-12-30T12:37:12.872Z,20.10
2017-12-30T12:38:17.637Z,20.00
2017-12-30T12:39:22.623Z,20.00
2017-12-30T12:40:27.691Z,20.10
2017-12-30T12:41:32.811Z,20.10
2017-12-30T12:42:37.588Z,20.10
2017-12-30T12:43:42.457Z,20.10
2017-12-30T12:44:47.298Z,20.10
2017-12-30T12:45:52.330Z,20.10
2017-12-30T12:46:57.082Z,20.00
2017-12-30T12:48:02.034Z,20.10
2017-12-30T12:49:06.865Z,20.10
2017-12-30T12:50:11.706Z,20.10
2017-12-30T12:51:16.740Z,20.10
2017-12-30T12:52:21.796Z,20.00
2017-12-30T12:53:26.682Z,20.00
2017-12-30T12:54:31.642Z,20.10
2017-12-30T12:55:36.589Z,20.10
2017-12-30T12:56:41.614Z,20.00
2017-12-30T12:57:46.390Z,20.10
2017-12-30T12:58:51.224Z,20.10
2017-12-30T12:59:55.955Z,20.00
2017-12-30T13:01:00.972Z,20.10
2017-12-30T13:02:06.047Z,20.10
2017-12-30T13:03:11.138Z,20.00
2017-12-30T13:04:16.065Z,20.00
2017-12-30T13:05:20.917Z,20.00
2017-12-30T13:06:26.112Z,20.00
2017-12-30T13:07:31.120Z,20.00
2017-12-30T13:08:36.186Z,20.00
2017-12-30T13:09:41.009Z,20.00
2017-12-30T13:10:46.016Z,20.00
2017-12-30T13:11:50.798Z,20.00
2017-12-30T13:12:55.629Z,20.00
2017-12-30T13:14:00.995Z,20.00
2017-12-30T13:15:05.877Z,20.00
2017-12-30T13:16:10.822Z,20.00
2017-12-30T13:17:15.559Z,20.00
2017-12-30T13:18:20.597Z,20.00
2017-12-30T13:19:25.371Z,20.00
2017-12-30T13:20:30.321Z,19.90
2017-12-30T13:21:35.281Z,19.90
2017-12-30T13:22:40.210Z,19.90
2017-12-30T13:23:45.175Z,19.90
2017-12-30T13:24:50.173Z,19.90
2017-12-30T13:25:54.958Z,19.90
2017-12-30T13:26:59.924Z,19.90
2017-12-30T13:28:04.788Z,19.90
2017-12-30T13:29:09.653Z,19.90
2017-12-30T13:30:14.624Z,19.90
2017-12-30T13:31:19.433Z,19.90
2017-12-30T13:32:24.452Z,19.90
2017-12-30T13:33:31.335Z,19.90
2017-12-30T13:34:36.236Z,19.90
2017-12-30T13:35:40.994Z,19.90
2017-12-30T13:36:45.919Z,19.90
2017-12-30T13:37:50.870Z,19.90
2017-12-30T13:38:55.810Z,20.00
2017-12-30T13:40:01.144Z,20.00
2017-12-30T13:41:05.915Z,20.00
2017-12-30T13:42:10.682Z,20.00
2017-12-30T13:43:15.462Z,20.00
2017-12-30T13:44:20.256Z,20.00
2017-12-30T13:45:25.230Z,20.00
2017-12-30T13:46:30.257Z,20.00
2017-12-30T13:47:35.483Z,20.00
2017-12-30T13:48:40.461Z,20.00
2017-12-30T13:49:45.536Z,20.00
2017-12-30T13:50:50.500Z,20.00
2017-12-30T13:51:55.331Z,20.00
2017-12-30T13:53:00.356Z,20.00
2017-12-30T13:54:05.385Z,20.00
2017-12-30T13:55:10.418Z,20.00
2017-12-30T13:56:15.478Z,20.00
2017-12-30T13:57:20.590Z,20.00
2017-12-30T13:58:25.853Z,20.00